sensor_id;sensor_type;location;lat;lon;timestamp;P1;durP1;ratioP1;P2;durP2;ratioP2
77724;SDS011;66892;53.236;6.550;2023-05-10T00:01:00;8.07;;;5.18;;
77724;SDS011;66892;53.236;6.550;2023-05-10T00:03:26;8.80;;;5.25;;
77724;SDS011;66892;53.236;6.550;2023-05-10T00:05:52;8.65;;;5.32;;
77724;SDS011;66892;53.236;6.550;2023-05-10T00:08:18;7.72;;;5.13;;
77724;SDS011;66892;53.236;6.550;2023-05-10T00:10:44;7.80;;;5.07;;
77724;SDS011;66892;53.236;6.550;2023-05-10T00:13:12;8.55;;;4.90;;
77724;SDS011;66892;53.236;6.550;2023-05-10T00:15:38;8.20;;;4.97;;
77724;SDS011;66892;53.236;6.550;2023-05-10T00:18:04;7.80;;;4.93;;
77724;SDS011;66892;53.236;6.550;2023-05-10T00:20:30;7.72;;;4.78;;
77724;SDS011;66892;53.236;6.550;2023-05-10T00:22:56;7.10;;;4.30;;
77724;SDS011;66892;53.236;6.550;2023-05-10T00:25:23;8.40;;;4.55;;
77724;SDS011;66892;53.236;6.550;2023-05-10T00:27:49;6.03;;;3.88;;
77724;SDS011;66892;53.236;6.550;2023-05-10T00:30:16;6.57;;;3.97;;
77724;SDS011;66892;53.236;6.550;2023-05-10T00:32:43;6.32;;;3.65;;
77724;SDS011;66892;53.236;6.550;2023-05-10T00:35:12;6.07;;;3.85;;
77724;SDS011;66892;53.236;6.550;2023-05-10T00:37:38;6.10;;;4.03;;
77724;SDS011;66892;53.236;6.550;2023-05-10T00:40:05;6.30;;;4.30;;
77724;SDS011;66892;53.236;6.550;2023-05-10T00:42:33;6.15;;;3.92;;
77724;SDS011;66892;53.236;6.550;2023-05-10T00:44:59;7.90;;;3.70;;
77724;SDS011;66892;53.236;6.550;2023-05-10T00:47:27;6.68;;;3.30;;
77724;SDS011;66892;53.236;6.550;2023-05-10T00:49:53;6.07;;;3.65;;
77724;SDS011;66892;53.236;6.550;2023-05-10T00:52:19;6.15;;;3.75;;
77724;SDS011;66892;53.236;6.550;2023-05-10T00:54:45;6.88;;;3.75;;
77724;SDS011;66892;53.236;6.550;2023-05-10T00:57:13;7.13;;;3.85;;
77724;SDS011;66892;53.236;6.550;2023-05-10T00:59:39;5.90;;;3.30;;
77724;SDS011;66892;53.236;6.550;2023-05-10T01:02:05;6.70;;;3.90;;
77724;SDS011;66892;53.236;6.550;2023-05-10T01:04:33;5.70;;;3.47;;
77724;SDS011;66892;53.236;6.550;2023-05-10T01:07:01;5.88;;;3.22;;
77724;SDS011;66892;53.236;6.550;2023-05-10T01:09:27;5.68;;;3.50;;
77724;SDS011;66892;53.236;6.550;2023-05-10T01:11:53;5.82;;;3.58;;
77724;SDS011;66892;53.236;6.550;2023-05-10T01:14:20;5.88;;;3.80;;
77724;SDS011;66892;53.236;6.550;2023-05-10T01:16:47;5.60;;;3.22;;
77724;SDS011;66892;53.236;6.550;2023-05-10T01:19:16;6.40;;;3.95;;
77724;SDS011;66892;53.236;6.550;2023-05-10T01:21:49;6.30;;;3.70;;
77724;SDS011;66892;53.236;6.550;2023-05-10T01:33:34;5.97;;;3.80;;
77724;SDS011;66892;53.236;6.550;2023-05-10T01:36:05;5.82;;;4.05;;
77724;SDS011;66892;53.236;6.550;2023-05-10T01:38:38;6.63;;;3.55;;
77724;SDS011;66892;53.236;6.550;2023-05-10T01:41:12;6.38;;;3.63;;
77724;SDS011;66892;53.236;6.550;2023-05-10T01:43:43;7.22;;;4.28;;
77724;SDS011;66892;53.236;6.550;2023-05-10T01:46:20;6.97;;;4.15;;
77724;SDS011;66892;53.236;6.550;2023-05-10T01:48:54;6.25;;;4.03;;
77724;SDS011;66892;53.236;6.550;2023-05-10T01:51:23;6.85;;;4.13;;
77724;SDS011;66892;53.236;6.550;2023-05-10T01:53:51;6.75;;;4.10;;
77724;SDS011;66892;53.236;6.550;2023-05-10T01:56:24;9.23;;;4.10;;
77724;SDS011;66892;53.236;6.550;2023-05-10T01:58:52;7.45;;;4.45;;
77724;SDS011;66892;53.236;6.550;2023-05-10T02:01:19;7.60;;;4.20;;
77724;SDS011;66892;53.236;6.550;2023-05-10T02:03:47;7.20;;;4.18;;
77724;SDS011;66892;53.236;6.550;2023-05-10T02:06:16;6.25;;;4.05;;
77724;SDS011;66892;53.236;6.550;2023-05-10T02:08:45;6.80;;;4.25;;
77724;SDS011;66892;53.236;6.550;2023-05-10T02:11:13;6.38;;;3.90;;
77724;SDS011;66892;53.236;6.550;2023-05-10T02:13:39;6.65;;;4.25;;
77724;SDS011;66892;53.236;6.550;2023-05-10T02:16:09;5.97;;;3.85;;
77724;SDS011;66892;53.236;6.550;2023-05-10T02:18:35;5.82;;;3.90;;
77724;SDS011;66892;53.236;6.550;2023-05-10T02:21:02;5.90;;;3.50;;
77724;SDS011;66892;53.236;6.550;2023-05-10T02:23:30;6.88;;;3.83;;
77724;SDS011;66892;53.236;6.550;2023-05-10T02:25:57;5.63;;;3.53;;
77724;SDS011;66892;53.236;6.550;2023-05-10T02:28:25;6.03;;;3.40;;
77724;SDS011;66892;53.236;6.550;2023-05-10T02:30:53;6.85;;;4.05;;
77724;SDS011;66892;53.236;6.550;2023-05-10T02:33:20;5.97;;;3.80;;
77724;SDS011;66892;53.236;6.550;2023-05-10T02:35:47;6.00;;;3.60;;
77724;SDS011;66892;53.236;6.550;2023-05-10T02:38:18;6.85;;;3.55;;
77724;SDS011;66892;53.236;6.550;2023-05-10T02:40:47;6.50;;;3.75;;
77724;SDS011;66892;53.236;6.550;2023-05-10T02:43:14;6.65;;;4.10;;
77724;SDS011;66892;53.236;6.550;2023-05-10T02:45:42;6.68;;;4.28;;
77724;SDS011;66892;53.236;6.550;2023-05-10T02:48:09;6.72;;;4.20;;
77724;SDS011;66892;53.236;6.550;2023-05-10T02:50:35;7.70;;;4.15;;
77724;SDS011;66892;53.236;6.550;2023-05-10T02:53:05;8.57;;;4.82;;
77724;SDS011;66892;53.236;6.550;2023-05-10T02:55:36;7.95;;;4.50;;
77724;SDS011;66892;53.236;6.550;2023-05-10T02:58:05;8.98;;;4.68;;
77724;SDS011;66892;53.236;6.550;2023-05-10T03:00:32;8.85;;;5.07;;
77724;SDS011;66892;53.236;6.550;2023-05-10T03:02:58;8.40;;;5.00;;
77724;SDS011;66892;53.236;6.550;2023-05-10T03:05:24;8.70;;;4.80;;
77724;SDS011;66892;53.236;6.550;2023-05-10T03:07:51;7.80;;;4.90;;
77724;SDS011;66892;53.236;6.550;2023-05-10T03:10:18;9.88;;;5.55;;
77724;SDS011;66892;53.236;6.550;2023-05-10T03:12:51;9.95;;;5.32;;
77724;SDS011;66892;53.236;6.550;2023-05-10T03:15:31;8.55;;;4.85;;
77724;SDS011;66892;53.236;6.550;2023-05-10T03:18:09;8.45;;;5.20;;
77724;SDS011;66892;53.236;6.550;2023-05-10T03:20:41;9.27;;;5.68;;
77724;SDS011;66892;53.236;6.550;2023-05-10T03:23:11;10.00;;;5.43;;
77724;SDS011;66892;53.236;6.550;2023-05-10T03:25:39;9.65;;;5.90;;
77724;SDS011;66892;53.236;6.550;2023-05-10T03:28:06;8.98;;;5.68;;
77724;SDS011;66892;53.236;6.550;2023-05-10T03:30:35;9.40;;;5.85;;
77724;SDS011;66892;53.236;6.550;2023-05-10T03:33:04;9.32;;;5.80;;
77724;SDS011;66892;53.236;6.550;2023-05-10T03:35:30;9.60;;;5.57;;
77724;SDS011;66892;53.236;6.550;2023-05-10T03:37:56;10.18;;;6.38;;
77724;SDS011;66892;53.236;6.550;2023-05-10T03:40:22;8.13;;;5.38;;
77724;SDS011;66892;53.236;6.550;2023-05-10T03:42:49;9.85;;;6.35;;
77724;SDS011;66892;53.236;6.550;2023-05-10T03:45:15;8.55;;;5.38;;
77724;SDS011;66892;53.236;6.550;2023-05-10T03:47:43;10.95;;;6.18;;
77724;SDS011;66892;53.236;6.550;2023-05-10T03:50:09;9.95;;;5.82;;
77724;SDS011;66892;53.236;6.550;2023-05-10T03:52:35;10.73;;;6.18;;
77724;SDS011;66892;53.236;6.550;2023-05-10T03:55:02;11.27;;;6.05;;
77724;SDS011;66892;53.236;6.550;2023-05-10T03:57:29;9.77;;;5.60;;
77724;SDS011;66892;53.236;6.550;2023-05-10T03:59:55;10.07;;;5.60;;
77724;SDS011;66892;53.236;6.550;2023-05-10T04:02:21;9.32;;;5.18;;
77724;SDS011;66892;53.236;6.550;2023-05-10T04:04:48;7.22;;;4.43;;
77724;SDS011;66892;53.236;6.550;2023-05-10T04:07:14;8.05;;;4.40;;
77724;SDS011;66892;53.236;6.550;2023-05-10T04:09:40;7.68;;;4.75;;
77724;SDS011;66892;53.236;6.550;2023-05-10T04:12:06;6.35;;;4.22;;
77724;SDS011;66892;53.236;6.550;2023-05-10T04:14:33;6.32;;;3.47;;
77724;SDS011;66892;53.236;6.550;2023-05-10T04:16:59;5.80;;;3.58;;
77724;SDS011;66892;53.236;6.550;2023-05-10T04:19:28;7.03;;;4.00;;
77724;SDS011;66892;53.236;6.550;2023-05-10T04:21:56;5.53;;;3.70;;
77724;SDS011;66892;53.236;6.550;2023-05-10T04:24:22;5.55;;;3.35;;
77724;SDS011;66892;53.236;6.550;2023-05-10T04:26:48;5.40;;;3.42;;
77724;SDS011;66892;53.236;6.550;2023-05-10T04:29:14;4.80;;;2.88;;
77724;SDS011;66892;53.236;6.550;2023-05-10T04:31:40;5.07;;;3.28;;
77724;SDS011;66892;53.236;6.550;2023-05-10T04:34:06;5.22;;;3.28;;
77724;SDS011;66892;53.236;6.550;2023-05-10T04:36:32;5.50;;;3.75;;
77724;SDS011;66892;53.236;6.550;2023-05-10T04:39:02;5.85;;;3.17;;
77724;SDS011;66892;53.236;6.550;2023-05-10T04:41:28;5.20;;;3.50;;
77724;SDS011;66892;53.236;6.550;2023-05-10T04:43:54;4.53;;;3.10;;
77724;SDS011;66892;53.236;6.550;2023-05-10T04:46:21;5.13;;;2.97;;
77724;SDS011;66892;53.236;6.550;2023-05-10T04:48:47;5.15;;;3.33;;
77724;SDS011;66892;53.236;6.550;2023-05-10T04:51:13;4.60;;;2.80;;
77724;SDS011;66892;53.236;6.550;2023-05-10T04:53:39;4.90;;;2.88;;
77724;SDS011;66892;53.236;6.550;2023-05-10T04:56:06;5.13;;;3.13;;
77724;SDS011;66892;53.236;6.550;2023-05-10T04:58:33;5.30;;;3.40;;
77724;SDS011;66892;53.236;6.550;2023-05-10T05:01:04;4.90;;;3.20;;
77724;SDS011;66892;53.236;6.550;2023-05-10T05:03:31;5.38;;;2.95;;
77724;SDS011;66892;53.236;6.550;2023-05-10T05:05:58;4.47;;;2.95;;
77724;SDS011;66892;53.236;6.550;2023-05-10T05:08:24;4.50;;;2.92;;
77724;SDS011;66892;53.236;6.550;2023-05-10T05:10:50;5.07;;;3.08;;
77724;SDS011;66892;53.236;6.550;2023-05-10T05:13:17;4.45;;;2.80;;
77724;SDS011;66892;53.236;6.550;2023-05-10T05:15:44;5.05;;;3.78;;
77724;SDS011;66892;53.236;6.550;2023-05-10T05:18:10;5.05;;;2.95;;
77724;SDS011;66892;53.236;6.550;2023-05-10T05:20:36;5.07;;;3.35;;
77724;SDS011;66892;53.236;6.550;2023-05-10T05:23:02;4.32;;;2.58;;
77724;SDS011;66892;53.236;6.550;2023-05-10T05:25:28;5.20;;;2.70;;
77724;SDS011;66892;53.236;6.550;2023-05-10T05:27:54;4.38;;;2.63;;
77724;SDS011;66892;53.236;6.550;2023-05-10T05:30:21;4.53;;;3.10;;
77724;SDS011;66892;53.236;6.550;2023-05-10T05:32:47;4.72;;;3.08;;
77724;SDS011;66892;53.236;6.550;2023-05-10T05:35:13;5.22;;;2.63;;
77724;SDS011;66892;53.236;6.550;2023-05-10T05:37:39;5.25;;;2.63;;
77724;SDS011;66892;53.236;6.550;2023-05-10T05:40:06;4.32;;;2.47;;
77724;SDS011;66892;53.236;6.550;2023-05-10T05:42:32;4.60;;;2.47;;
77724;SDS011;66892;53.236;6.550;2023-05-10T05:44:59;4.28;;;2.47;;
77724;SDS011;66892;53.236;6.550;2023-05-10T05:47:26;3.85;;;2.47;;
77724;SDS011;66892;53.236;6.550;2023-05-10T05:49:52;3.92;;;2.45;;
77724;SDS011;66892;53.236;6.550;2023-05-10T05:52:18;4.45;;;3.00;;
77724;SDS011;66892;53.236;6.550;2023-05-10T05:54:44;5.18;;;2.85;;
77724;SDS011;66892;53.236;6.550;2023-05-10T05:57:10;3.72;;;1.90;;
77724;SDS011;66892;53.236;6.550;2023-05-10T05:59:36;3.33;;;1.95;;
77724;SDS011;66892;53.236;6.550;2023-05-10T06:02:09;3.20;;;1.45;;
77724;SDS011;66892;53.236;6.550;2023-05-10T06:04:36;3.00;;;1.40;;
77724;SDS011;66892;53.236;6.550;2023-05-10T06:07:02;2.95;;;1.52;;
77724;SDS011;66892;53.236;6.550;2023-05-10T06:09:29;2.85;;;1.48;;
77724;SDS011;66892;53.236;6.550;2023-05-10T06:11:55;2.90;;;1.52;;
77724;SDS011;66892;53.236;6.550;2023-05-10T06:14:21;2.22;;;1.10;;
77724;SDS011;66892;53.236;6.550;2023-05-10T06:16:47;1.75;;;0.98;;
77724;SDS011;66892;53.236;6.550;2023-05-10T06:19:13;2.03;;;1.10;;
77724;SDS011;66892;53.236;6.550;2023-05-10T06:21:40;1.90;;;1.00;;
77724;SDS011;66892;53.236;6.550;2023-05-10T06:24:06;2.13;;;1.00;;
77724;SDS011;66892;53.236;6.550;2023-05-10T06:26:33;2.80;;;1.15;;
77724;SDS011;66892;53.236;6.550;2023-05-10T06:28:59;2.35;;;1.25;;
77724;SDS011;66892;53.236;6.550;2023-05-10T06:31:25;2.45;;;1.38;;
77724;SDS011;66892;53.236;6.550;2023-05-10T06:33:51;3.65;;;2.10;;
77724;SDS011;66892;53.236;6.550;2023-05-10T06:36:17;4.25;;;2.20;;
77724;SDS011;66892;53.236;6.550;2023-05-10T06:38:44;4.75;;;2.95;;
77724;SDS011;66892;53.236;6.550;2023-05-10T06:41:10;5.00;;;3.47;;
77724;SDS011;66892;53.236;6.550;2023-05-10T06:43:37;5.15;;;3.45;;
77724;SDS011;66892;53.236;6.550;2023-05-10T06:46:05;5.55;;;3.60;;
77724;SDS011;66892;53.236;6.550;2023-05-10T06:48:32;5.82;;;3.53;;
77724;SDS011;66892;53.236;6.550;2023-05-10T06:50:58;5.13;;;3.65;;
77724;SDS011;66892;53.236;6.550;2023-05-10T06:53:24;5.30;;;3.63;;
77724;SDS011;66892;53.236;6.550;2023-05-10T06:55:52;5.78;;;4.22;;
77724;SDS011;66892;53.236;6.550;2023-05-10T06:58:18;5.95;;;4.05;;
77724;SDS011;66892;53.236;6.550;2023-05-10T07:00:44;6.32;;;4.10;;
77724;SDS011;66892;53.236;6.550;2023-05-10T07:03:10;5.97;;;3.78;;
77724;SDS011;66892;53.236;6.550;2023-05-10T07:05:36;5.63;;;3.85;;
77724;SDS011;66892;53.236;6.550;2023-05-10T07:08:03;4.85;;;3.17;;
77724;SDS011;66892;53.236;6.550;2023-05-10T07:10:29;4.78;;;3.30;;
77724;SDS011;66892;53.236;6.550;2023-05-10T07:12:56;4.93;;;3.15;;
77724;SDS011;66892;53.236;6.550;2023-05-10T07:15:22;4.63;;;2.83;;
77724;SDS011;66892;53.236;6.550;2023-05-10T07:17:48;4.13;;;2.78;;
77724;SDS011;66892;53.236;6.550;2023-05-10T07:20:14;4.20;;;2.50;;
77724;SDS011;66892;53.236;6.550;2023-05-10T07:22:42;4.03;;;2.63;;
77724;SDS011;66892;53.236;6.550;2023-05-10T07:25:08;4.88;;;2.38;;
77724;SDS011;66892;53.236;6.550;2023-05-10T07:27:34;3.63;;;2.30;;
77724;SDS011;66892;53.236;6.550;2023-05-10T07:30:02;4.00;;;2.10;;
77724;SDS011;66892;53.236;6.550;2023-05-10T07:32:28;3.17;;;1.85;;
77724;SDS011;66892;53.236;6.550;2023-05-10T07:34:54;3.90;;;1.63;;
77724;SDS011;66892;53.236;6.550;2023-05-10T07:37:20;3.83;;;2.22;;
77724;SDS011;66892;53.236;6.550;2023-05-10T07:39:46;3.60;;;2.60;;
77724;SDS011;66892;53.236;6.550;2023-05-10T07:42:12;3.42;;;1.40;;
77724;SDS011;66892;53.236;6.550;2023-05-10T07:44:38;2.58;;;1.33;;
77724;SDS011;66892;53.236;6.550;2023-05-10T07:47:06;2.88;;;1.58;;
77724;SDS011;66892;53.236;6.550;2023-05-10T07:49:32;2.75;;;1.35;;
77724;SDS011;66892;53.236;6.550;2023-05-10T07:51:58;1.92;;;1.08;;
77724;SDS011;66892;53.236;6.550;2023-05-10T07:54:24;2.60;;;1.30;;
77724;SDS011;66892;53.236;6.550;2023-05-10T07:56:50;2.88;;;1.50;;
77724;SDS011;66892;53.236;6.550;2023-05-10T07:59:17;3.13;;;1.60;;
77724;SDS011;66892;53.236;6.550;2023-05-10T08:01:43;3.10;;;1.63;;
77724;SDS011;66892;53.236;6.550;2023-05-10T08:04:11;2.60;;;1.50;;
77724;SDS011;66892;53.236;6.550;2023-05-10T08:06:37;3.03;;;1.67;;
77724;SDS011;66892;53.236;6.550;2023-05-10T08:09:03;2.80;;;1.48;;
77724;SDS011;66892;53.236;6.550;2023-05-10T08:11:29;3.60;;;1.90;;
77724;SDS011;66892;53.236;6.550;2023-05-10T08:13:55;3.45;;;1.83;;
77724;SDS011;66892;53.236;6.550;2023-05-10T08:16:21;3.10;;;1.70;;
77724;SDS011;66892;53.236;6.550;2023-05-10T08:18:47;3.70;;;1.95;;
77724;SDS011;66892;53.236;6.550;2023-05-10T08:21:16;3.38;;;1.85;;
77724;SDS011;66892;53.236;6.550;2023-05-10T08:23:42;3.35;;;1.70;;
77724;SDS011;66892;53.236;6.550;2023-05-10T08:26:09;3.33;;;1.77;;
77724;SDS011;66892;53.236;6.550;2023-05-10T08:28:35;3.33;;;1.90;;
77724;SDS011;66892;53.236;6.550;2023-05-10T08:31:01;4.32;;;2.05;;
77724;SDS011;66892;53.236;6.550;2023-05-10T08:33:27;3.85;;;1.98;;
77724;SDS011;66892;53.236;6.550;2023-05-10T08:35:53;4.07;;;2.15;;
77724;SDS011;66892;53.236;6.550;2023-05-10T08:38:21;3.90;;;2.55;;
77724;SDS011;66892;53.236;6.550;2023-05-10T08:40:47;3.85;;;2.38;;
77724;SDS011;66892;53.236;6.550;2023-05-10T08:43:16;4.72;;;2.13;;
77724;SDS011;66892;53.236;6.550;2023-05-10T08:45:43;3.33;;;1.65;;
77724;SDS011;66892;53.236;6.550;2023-05-10T08:48:13;3.35;;;2.00;;
77724;SDS011;66892;53.236;6.550;2023-05-10T08:50:40;4.45;;;2.40;;
77724;SDS011;66892;53.236;6.550;2023-05-10T08:53:09;2.85;;;1.55;;
77724;SDS011;66892;53.236;6.550;2023-05-10T08:55:37;3.17;;;1.58;;
77724;SDS011;66892;53.236;6.550;2023-05-10T08:58:04;3.40;;;1.70;;
77724;SDS011;66892;53.236;6.550;2023-05-10T09:00:31;3.22;;;1.42;;
77724;SDS011;66892;53.236;6.550;2023-05-10T09:02:57;3.20;;;1.73;;
77724;SDS011;66892;53.236;6.550;2023-05-10T09:05:23;3.85;;;1.63;;
77724;SDS011;66892;53.236;6.550;2023-05-10T09:07:50;3.20;;;1.60;;
77724;SDS011;66892;53.236;6.550;2023-05-10T09:10:16;3.88;;;1.88;;
77724;SDS011;66892;53.236;6.550;2023-05-10T09:12:44;3.45;;;1.85;;
77724;SDS011;66892;53.236;6.550;2023-05-10T09:15:10;3.55;;;1.85;;
77724;SDS011;66892;53.236;6.550;2023-05-10T09:17:37;3.85;;;2.15;;
77724;SDS011;66892;53.236;6.550;2023-05-10T09:20:06;3.38;;;1.83;;
77724;SDS011;66892;53.236;6.550;2023-05-10T09:22:33;3.83;;;2.03;;
77724;SDS011;66892;53.236;6.550;2023-05-10T09:25:06;4.38;;;2.30;;
77724;SDS011;66892;53.236;6.550;2023-05-10T09:27:33;3.58;;;1.77;;
77724;SDS011;66892;53.236;6.550;2023-05-10T09:30:00;4.20;;;2.10;;
77724;SDS011;66892;53.236;6.550;2023-05-10T09:32:35;3.28;;;1.70;;
77724;SDS011;66892;53.236;6.550;2023-05-10T09:35:05;3.80;;;2.08;;
77724;SDS011;66892;53.236;6.550;2023-05-10T09:37:35;3.30;;;1.90;;
77724;SDS011;66892;53.236;6.550;2023-05-10T09:40:03;5.13;;;2.28;;
77724;SDS011;66892;53.236;6.550;2023-05-10T09:42:30;3.00;;;1.55;;
77724;SDS011;66892;53.236;6.550;2023-05-10T09:45:00;3.83;;;1.60;;
77724;SDS011;66892;53.236;6.550;2023-05-10T09:47:31;3.30;;;1.80;;
77724;SDS011;66892;53.236;6.550;2023-05-10T09:49:58;3.70;;;1.80;;
77724;SDS011;66892;53.236;6.550;2023-05-10T09:52:29;3.03;;;1.58;;
77724;SDS011;66892;53.236;6.550;2023-05-10T09:54:55;3.75;;;1.63;;
77724;SDS011;66892;53.236;6.550;2023-05-10T09:57:21;3.88;;;1.52;;
77724;SDS011;66892;53.236;6.550;2023-05-10T09:59:48;3.20;;;1.40;;
77724;SDS011;66892;53.236;6.550;2023-05-10T10:02:16;2.88;;;1.48;;
77724;SDS011;66892;53.236;6.550;2023-05-10T10:04:43;3.10;;;1.60;;
77724;SDS011;66892;53.236;6.550;2023-05-10T10:07:09;4.22;;;1.60;;
77724;SDS011;66892;53.236;6.550;2023-05-10T10:09:35;2.95;;;1.40;;
77724;SDS011;66892;53.236;6.550;2023-05-10T10:12:01;2.88;;;1.45;;
77724;SDS011;66892;53.236;6.550;2023-05-10T10:14:28;2.67;;;1.40;;
77724;SDS011;66892;53.236;6.550;2023-05-10T10:16:54;3.05;;;1.55;;
77724;SDS011;66892;53.236;6.550;2023-05-10T10:19:22;2.90;;;1.42;;
77724;SDS011;66892;53.236;6.550;2023-05-10T10:21:48;3.45;;;1.30;;
77724;SDS011;66892;53.236;6.550;2023-05-10T10:24:15;2.53;;;1.17;;
77724;SDS011;66892;53.236;6.550;2023-05-10T10:26:42;2.78;;;1.40;;
77724;SDS011;66892;53.236;6.550;2023-05-10T10:29:12;2.90;;;1.25;;
77724;SDS011;66892;53.236;6.550;2023-05-10T10:31:51;2.47;;;1.27;;
77724;SDS011;66892;53.236;6.550;2023-05-10T10:34:28;2.92;;;1.20;;
77724;SDS011;66892;53.236;6.550;2023-05-10T10:36:55;2.65;;;1.27;;
77724;SDS011;66892;53.236;6.550;2023-05-10T10:39:23;2.90;;;1.23;;
77724;SDS011;66892;53.236;6.550;2023-05-10T10:41:53;2.78;;;1.20;;
77724;SDS011;66892;53.236;6.550;2023-05-10T10:47:05;2.60;;;1.27;;
77724;SDS011;66892;53.236;6.550;2023-05-10T10:49:42;2.78;;;1.50;;
77724;SDS011;66892;53.236;6.550;2023-05-10T10:52:23;2.92;;;1.60;;
77724;SDS011;66892;53.236;6.550;2023-05-10T10:54:58;3.30;;;1.63;;
77724;SDS011;66892;53.236;6.550;2023-05-10T10:57:26;3.20;;;1.80;;
77724;SDS011;66892;53.236;6.550;2023-05-10T11:02:58;3.33;;;1.75;;
77724;SDS011;66892;53.236;6.550;2023-05-10T11:05:39;3.53;;;1.80;;
77724;SDS011;66892;53.236;6.550;2023-05-10T11:08:08;4.13;;;2.03;;
77724;SDS011;66892;53.236;6.550;2023-05-10T11:10:36;4.22;;;1.70;;
77724;SDS011;66892;53.236;6.550;2023-05-10T11:13:02;4.15;;;2.33;;
77724;SDS011;66892;53.236;6.550;2023-05-10T11:15:30;4.35;;;2.30;;
77724;SDS011;66892;53.236;6.550;2023-05-10T11:17:57;4.03;;;2.10;;
77724;SDS011;66892;53.236;6.550;2023-05-10T11:20:23;4.97;;;2.45;;
77724;SDS011;66892;53.236;6.550;2023-05-10T11:23:10;3.72;;;2.38;;
77724;SDS011;66892;53.236;6.550;2023-05-10T11:25:40;3.85;;;2.05;;
77724;SDS011;66892;53.236;6.550;2023-05-10T11:28:07;4.63;;;2.25;;
77724;SDS011;66892;53.236;6.550;2023-05-10T11:30:33;4.10;;;2.50;;
77724;SDS011;66892;53.236;6.550;2023-05-10T11:32:59;3.85;;;2.20;;
77724;SDS011;66892;53.236;6.550;2023-05-10T11:35:27;3.70;;;2.22;;
77724;SDS011;66892;53.236;6.550;2023-05-10T11:37:53;4.20;;;2.50;;
77724;SDS011;66892;53.236;6.550;2023-05-10T11:40:22;4.53;;;3.13;;
77724;SDS011;66892;53.236;6.550;2023-05-10T11:42:51;4.88;;;2.72;;
77724;SDS011;66892;53.236;6.550;2023-05-10T11:45:23;4.53;;;2.55;;
77724;SDS011;66892;53.236;6.550;2023-05-10T11:47:49;4.63;;;2.60;;
77724;SDS011;66892;53.236;6.550;2023-05-10T11:50:16;4.75;;;2.75;;
77724;SDS011;66892;53.236;6.550;2023-05-10T11:52:43;3.90;;;2.30;;
77724;SDS011;66892;53.236;6.550;2023-05-10T11:55:09;4.30;;;2.78;;
77724;SDS011;66892;53.236;6.550;2023-05-10T11:57:36;4.20;;;2.25;;
77724;SDS011;66892;53.236;6.550;2023-05-10T12:00:04;4.70;;;2.65;;
77724;SDS011;66892;53.236;6.550;2023-05-10T12:02:31;4.35;;;2.38;;
77724;SDS011;66892;53.236;6.550;2023-05-10T12:04:57;4.38;;;2.50;;
77724;SDS011;66892;53.236;6.550;2023-05-10T12:07:25;4.35;;;2.67;;
77724;SDS011;66892;53.236;6.550;2023-05-10T12:10:07;4.20;;;2.63;;
77724;SDS011;66892;53.236;6.550;2023-05-10T12:12:36;4.32;;;2.63;;
77724;SDS011;66892;53.236;6.550;2023-05-10T12:15:04;4.57;;;2.80;;
77724;SDS011;66892;53.236;6.550;2023-05-10T12:17:32;4.60;;;2.65;;
77724;SDS011;66892;53.236;6.550;2023-05-10T12:19:58;4.25;;;2.63;;
77724;SDS011;66892;53.236;6.550;2023-05-10T12:22:25;5.13;;;2.85;;
77724;SDS011;66892;53.236;6.550;2023-05-10T12:24:51;5.38;;;3.33;;
77724;SDS011;66892;53.236;6.550;2023-05-10T12:27:17;5.63;;;3.60;;
77724;SDS011;66892;53.236;6.550;2023-05-10T12:29:45;4.85;;;3.00;;
77724;SDS011;66892;53.236;6.550;2023-05-10T12:32:11;4.53;;;2.92;;
77724;SDS011;66892;53.236;6.550;2023-05-10T12:34:37;4.63;;;2.70;;
77724;SDS011;66892;53.236;6.550;2023-05-10T12:37:04;5.03;;;3.25;;
77724;SDS011;66892;53.236;6.550;2023-05-10T12:39:39;5.00;;;3.00;;
77724;SDS011;66892;53.236;6.550;2023-05-10T12:42:06;4.78;;;3.08;;
77724;SDS011;66892;53.236;6.550;2023-05-10T12:44:32;4.50;;;2.42;;
77724;SDS011;66892;53.236;6.550;2023-05-10T12:47:00;4.20;;;2.55;;
77724;SDS011;66892;53.236;6.550;2023-05-10T12:49:26;4.25;;;2.75;;
77724;SDS011;66892;53.236;6.550;2023-05-10T12:51:52;4.60;;;2.83;;
77724;SDS011;66892;53.236;6.550;2023-05-10T12:54:18;4.40;;;2.30;;
77724;SDS011;66892;53.236;6.550;2023-05-10T12:56:44;4.32;;;2.80;;
77724;SDS011;66892;53.236;6.550;2023-05-10T12:59:10;5.20;;;2.65;;
77724;SDS011;66892;53.236;6.550;2023-05-10T13:01:36;4.43;;;2.53;;
77724;SDS011;66892;53.236;6.550;2023-05-10T13:04:03;4.20;;;2.45;;
77724;SDS011;66892;53.236;6.550;2023-05-10T13:06:30;3.78;;;2.28;;
77724;SDS011;66892;53.236;6.550;2023-05-10T13:08:56;4.03;;;2.00;;
77724;SDS011;66892;53.236;6.550;2023-05-10T13:11:23;4.93;;;2.47;;
77724;SDS011;66892;53.236;6.550;2023-05-10T13:13:49;4.68;;;2.72;;
77724;SDS011;66892;53.236;6.550;2023-05-10T13:16:15;4.38;;;2.70;;
77724;SDS011;66892;53.236;6.550;2023-05-10T13:18:41;4.28;;;2.30;;
77724;SDS011;66892;53.236;6.550;2023-05-10T13:21:08;4.15;;;2.17;;
77724;SDS011;66892;53.236;6.550;2023-05-10T13:23:35;4.30;;;2.28;;
77724;SDS011;66892;53.236;6.550;2023-05-10T13:26:01;4.32;;;2.38;;
77724;SDS011;66892;53.236;6.550;2023-05-10T13:28:27;3.90;;;2.00;;
77724;SDS011;66892;53.236;6.550;2023-05-10T13:30:53;4.63;;;2.13;;
77724;SDS011;66892;53.236;6.550;2023-05-10T13:33:19;4.28;;;2.28;;
77724;SDS011;66892;53.236;6.550;2023-05-10T13:35:45;5.07;;;2.40;;
77724;SDS011;66892;53.236;6.550;2023-05-10T13:38:12;3.90;;;2.58;;
77724;SDS011;66892;53.236;6.550;2023-05-10T13:40:39;3.83;;;2.10;;
77724;SDS011;66892;53.236;6.550;2023-05-10T13:43:05;4.28;;;2.22;;
77724;SDS011;66892;53.236;6.550;2023-05-10T13:45:31;3.92;;;1.92;;
77724;SDS011;66892;53.236;6.550;2023-05-10T13:47:57;3.92;;;2.20;;
77724;SDS011;66892;53.236;6.550;2023-05-10T13:50:23;4.78;;;2.22;;
77724;SDS011;66892;53.236;6.550;2023-05-10T13:52:49;4.40;;;2.10;;
77724;SDS011;66892;53.236;6.550;2023-05-10T13:55:16;3.70;;;2.03;;
77724;SDS011;66892;53.236;6.550;2023-05-10T13:57:42;4.07;;;2.30;;
77724;SDS011;66892;53.236;6.550;2023-05-10T14:00:09;3.88;;;2.33;;
77724;SDS011;66892;53.236;6.550;2023-05-10T14:02:35;4.10;;;2.25;;
77724;SDS011;66892;53.236;6.550;2023-05-10T14:05:02;4.30;;;2.00;;
77724;SDS011;66892;53.236;6.550;2023-05-10T14:07:28;3.88;;;2.08;;
77724;SDS011;66892;53.236;6.550;2023-05-10T14:09:54;4.50;;;2.28;;
77724;SDS011;66892;53.236;6.550;2023-05-10T14:12:21;4.50;;;2.45;;
77724;SDS011;66892;53.236;6.550;2023-05-10T14:14:47;4.53;;;2.58;;
77724;SDS011;66892;53.236;6.550;2023-05-10T14:17:14;3.88;;;2.25;;
77724;SDS011;66892;53.236;6.550;2023-05-10T14:19:40;4.30;;;2.10;;
77724;SDS011;66892;53.236;6.550;2023-05-10T14:22:06;4.07;;;2.65;;
77724;SDS011;66892;53.236;6.550;2023-05-10T14:24:32;4.68;;;2.72;;
77724;SDS011;66892;53.236;6.550;2023-05-10T14:26:58;4.30;;;2.40;;
77724;SDS011;66892;53.236;6.550;2023-05-10T14:29:27;4.28;;;2.45;;
77724;SDS011;66892;53.236;6.550;2023-05-10T14:31:53;4.78;;;2.88;;
77724;SDS011;66892;53.236;6.550;2023-05-10T14:34:19;4.15;;;2.33;;
77724;SDS011;66892;53.236;6.550;2023-05-10T14:36:45;4.05;;;2.53;;
77724;SDS011;66892;53.236;6.550;2023-05-10T14:39:11;5.22;;;2.38;;
77724;SDS011;66892;53.236;6.550;2023-05-10T14:41:38;4.47;;;2.60;;
77724;SDS011;66892;53.236;6.550;2023-05-10T14:44:07;4.70;;;2.53;;
77724;SDS011;66892;53.236;6.550;2023-05-10T14:46:34;4.50;;;2.55;;
77724;SDS011;66892;53.236;6.550;2023-05-10T14:49:00;3.80;;;2.40;;
77724;SDS011;66892;53.236;6.550;2023-05-10T14:51:26;5.13;;;2.60;;
77724;SDS011;66892;53.236;6.550;2023-05-10T14:53:52;4.40;;;2.80;;
77724;SDS011;66892;53.236;6.550;2023-05-10T14:56:18;4.28;;;2.45;;
77724;SDS011;66892;53.236;6.550;2023-05-10T14:58:44;4.25;;;2.35;;
77724;SDS011;66892;53.236;6.550;2023-05-10T15:01:10;3.88;;;2.65;;
77724;SDS011;66892;53.236;6.550;2023-05-10T15:03:38;5.22;;;2.85;;